Time;durP1;ratioP1;P1;durP2;ratioP2;P2;SDS_P1;SDS_P2;PMS_P1;PMS_P2;Temp;Humidity;BMP_temperature;BMP_pressure;BME280_temperature;BME280_humidity;BME280_pressure;Samples;Min_cycle;Max_cycle;Signal;HPM_P1;HPM_P2
2022/04/08 00:00:10;;;;;;;16.38;11.55;;;28.40;91.90;;;;;;5127089;28;20031;-47
2022/04/08 00:02:39;;;;;;;15.57;10.98;;;28.50;91.90;;;;;;5127267;28;20077;-53
2022/04/08 00:05:08;;;;;;;12.10;10.65;;;28.50;92.00;;;;;;5126893;28;20023;-53
2022/04/08 00:07:35;;;;;;;17.85;11.15;;;28.40;92.00;;;;;;5127209;28;20023;-56
2022/04/08 00:10:02;;;;;;;15.63;10.45;;;28.40;92.00;;;;;;5126948;28;20027;-54
2022/04/08 00:12:29;;;;;;;12.60;9.90;;;28.40;92.00;;;;;;5126540;28;20051;-51
2022/04/08 00:14:58;;;;;;;14.15;10.00;;;28.30;92.00;;;;;;5126851;28;20065;-56
2022/04/08 00:17:26;;;;;;;13.02;9.82;;;28.40;92.10;;;;;;5127061;28;20032;-55
2022/04/08 00:19:52;;;;;;;14.82;9.18;;;28.40;92.10;;;;;;5126669;28;20038;-57
2022/04/08 00:22:20;;;;;;;16.35;9.43;;;28.40;92.00;;;;;;5126927;28;20065;-57
2022/04/08 00:24:48;;;;;;;13.45;9.05;;;28.40;91.90;;;;;;5126701;28;20028;-52
2022/04/08 00:27:15;;;;;;;15.20;8.70;;;28.40;91.90;;;;;;5126909;28;20020;-51
2022/04/08 00:29:42;;;;;;;13.07;9.07;;;28.30;91.80;;;;;;5126768;28;20312;-55
2022/04/08 00:32:09;;;;;;;11.82;8.98;;;28.30;91.70;;;;;;5126801;28;20032;-55
2022/04/08 00:34:36;;;;;;;14.90;9.68;;;28.30;91.70;;;;;;5126760;28;20019;-50
2022/04/08 00:37:03;;;;;;;12.88;10.55;;;28.30;91.70;;;;;;5126698;28;20073;-58
2022/04/08 00:39:30;;;;;;;16.85;11.27;;;28.30;91.70;;;;;;5126621;28;20031;-52
2022/04/08 00:42:00;;;;;;;13.73;10.52;;;28.30;91.70;;;;;;5126457;28;20068;-50
2022/04/08 00:44:29;;;;;;;16.10;11.13;;;28.30;91.70;;;;;;5126321;28;20020;-51
2022/04/08 00:46:55;;;;;;;18.63;11.02;;;28.30;91.60;;;;;;5126320;28;20035;-50
2022/04/08 00:49:22;;;;;;;14.88;10.20;;;28.30;91.60;;;;;;5126498;28;20034;-55
2022/04/08 00:51:49;;;;;;;13.02;9.32;;;28.20;91.50;;;;;;5126187;28;20050;-49
2022/04/08 00:54:16;;;;;;;15.43;9.40;;;28.20;91.40;;;;;;5126212;28;20032;-52
2022/04/08 00:56:43;;;;;;;13.32;8.18;;;28.20;91.20;;;;;;5126225;28;20035;-47
2022/04/08 00:59:09;;;;;;;15.00;9.00;;;28.20;91.00;;;;;;5126042;28;20160;-52
2022/04/08 01:01:36;;;;;;;16.92;9.15;;;28.20;91.00;;;;;;5126226;28;20125;-48
2022/04/08 01:04:03;;;;;;;12.68;9.35;;;28.20;90.90;;;;;;5125805;28;20097;-56
2022/04/08 01:06:29;;;;;;;15.45;9.45;;;28.20;90.80;;;;;;5125845;28;20020;-49
2022/04/08 01:08:56;;;;;;;17.77;8.68;;;28.20;90.60;;;;;;5125909;28;20068;-52
2022/04/08 01:11:23;;;;;;;13.75;8.63;;;28.10;90.60;;;;;;5125677;28;20023;-52
2022/04/08 01:13:52;;;;;;;12.65;9.05;;;28.10;90.50;;;;;;5125804;28;20024;-59
2022/04/08 01:16:19;;;;;;;17.92;11.30;;;28.10;90.30;;;;;;5125807;28;20027;-52
2022/04/08 01:18:46;;;;;;;25.38;16.38;;;28.10;90.30;;;;;;5125499;28;20134;-54
2022/04/08 01:21:12;;;;;;;26.27;21.33;;;28.10;90.30;;;;;;5125685;28;20024;-53
2022/04/08 01:23:43;;;;;;;26.35;20.83;;;28.10;90.30;;;;;;5125288;28;20039;-56
2022/04/08 01:26:12;;;;;;;20.75;16.10;;;28.10;90.30;;;;;;5124849;28;20193;-56
2022/04/08 01:28:39;;;;;;;24.65;16.50;;;28.10;90.50;;;;;;5125551;28;20111;-57
2022/04/08 01:31:05;;;;;;;18.15;11.95;;;28.10;90.50;;;;;;5125415;28;20083;-55
2022/04/08 01:33:32;;;;;;;16.83;11.35;;;28.00;90.40;;;;;;5125750;28;20020;-53
2022/04/08 01:35:58;;;;;;;15.32;10.07;;;28.00;90.30;;;;;;5125294;28;20032;-54
2022/04/08 01:38:27;;;;;;;18.83;9.77;;;28.00;90.30;;;;;;5125743;28;20035;-53
2022/04/08 01:40:54;;;;;;;16.00;8.85;;;28.00;90.20;;;;;;5125445;28;20212;-53
2022/04/08 01:43:20;;;;;;;17.55;8.80;;;28.00;90.00;;;;;;5125742;28;20076;-47
2022/04/08 01:45:47;;;;;;;13.95;8.60;;;28.00;89.70;;;;;;5125243;28;20023;-51
2022/04/08 01:48:14;;;;;;;13.98;8.38;;;28.00;89.30;;;;;;5125463;28;20020;-57
2022/04/08 01:50:40;;;;;;;13.70;8.32;;;27.90;88.30;;;;;;5125247;28;20043;-55
2022/04/08 01:53:08;;;;;;;12.30;8.77;;;27.90;88.30;;;;;;5125422;28;20019;-55
2022/04/08 01:55:35;;;;;;;13.25;8.50;;;27.90;88.10;;;;;;5124908;28;20161;-53
2022/04/08 01:58:04;;;;;;;18.35;8.57;;;27.90;87.80;;;;;;5125393;28;20040;-59
2022/04/08 02:00:31;;;;;;;12.95;9.35;;;27.90;87.30;;;;;;5124972;28;20086;-53
2022/04/08 02:02:58;;;;;;;14.40;11.73;;;27.90;87.30;;;;;;5125137;28;20024;-51
2022/04/08 02:05:25;;;;;;;17.92;12.70;;;27.80;87.40;;;;;;5124777;28;20031;-51
2022/04/08 02:07:53;;;;;;;16.50;11.88;;;27.90;87.70;;;;;;5125195;28;20016;-57
2022/04/08 02:10:20;;;;;;;13.80;10.88;;;27.90;87.70;;;;;;5124609;28;20047;-57
2022/04/08 02:12:47;;;;;;;16.65;10.43;;;27.90;87.80;;;;;;5125188;28;20055;-56
2022/04/08 02:15:14;;;;;;;14.93;10.15;;;27.80;87.50;;;;;;5124794;28;20367;-56
2022/04/08 02:17:40;;;;;;;14.40;9.13;;;27.80;87.50;;;;;;5124825;28;20102;-55
2022/04/08 02:20:10;;;;;;;19.17;9.40;;;27.80;87.90;;;;;;5124775;28;20099;-53
2022/04/08 02:22:37;;;;;;;17.15;8.38;;;27.80;88.20;;;;;;5124908;28;20030;-56
2022/04/08 02:25:05;;;;;;;17.17;9.30;;;27.80;88.50;;;;;;5124425;28;20023;-57
2022/04/08 02:28:06;;;;;;;19.30;10.00;;;27.80;88.70;;;;;;5124749;28;20023;-53
2022/04/08 02:30:33;;;;;;;16.58;9.38;;;27.80;89.00;;;;;;5124572;28;20020;-54
2022/04/08 02:33:01;;;;;;;15.60;10.07;;;27.80;89.20;;;;;;5124950;28;20098;-49
2022/04/08 02:35:30;;;;;;;22.08;10.50;;;27.80;89.40;;;;;;5124165;28;20047;-55
2022/04/08 02:37:56;;;;;;;23.45;11.18;;;27.70;89.40;;;;;;5124744;28;20091;-52
2022/04/08 02:40:23;;;;;;;21.60;11.68;;;27.70;89.50;;;;;;5124480;28;20095;-55
2022/04/08 02:42:52;;;;;;;21.23;14.52;;;27.70;89.40;;;;;;5124573;28;20245;-62
2022/04/08 02:45:19;;;;;;;46.20;41.47;;;27.70;89.30;;;;;;5124341;28;20260;-56
2022/04/08 02:47:46;;;;;;;35.90;25.83;;;27.70;89.10;;;;;;5124640;28;20197;-49
2022/04/08 02:50:13;;;;;;;35.72;32.03;;;27.70;88.90;;;;;;5124186;28;20300;-50
2022/04/08 02:52:39;;;;;;;46.60;39.35;;;27.70;88.90;;;;;;5124457;28;20279;-56
2022/04/08 02:55:06;;;;;;;34.55;30.48;;;27.70;88.30;;;;;;5124153;28;20035;-53
2022/04/08 02:57:44;;;;;;;63.50;56.30;;;27.60;88.10;;;;;;5124575;28;20027;-54
2022/04/08 03:00:18;;;;;;;65.18;58.17;;;27.60;87.90;;;;;;5124071;28;20311;-54
2022/04/08 03:02:46;;;;;;;44.90;37.65;;;27.60;88.10;;;;;;5124309;28;20040;-55
2022/04/08 03:05:13;;;;;;;32.70;28.67;;;27.60;87.80;;;;;;5123915;28;20019;-54
2022/04/08 03:07:40;;;;;;;31.33;25.10;;;27.60;88.00;;;;;;5124363;28;20050;-54
2022/04/08 03:10:08;;;;;;;28.27;21.30;;;27.50;88.10;;;;;;5123893;28;20046;-57
2022/04/08 03:12:35;;;;;;;22.17;16.40;;;27.50;88.00;;;;;;5124266;28;20024;-55
2022/04/08 03:15:02;;;;;;;22.58;14.40;;;27.50;88.10;;;;;;5124240;28;20032;-53
2022/04/08 03:17:29;;;;;;;19.35;11.82;;;27.50;88.10;;;;;;5124167;28;20083;-52
2022/04/08 03:19:59;;;;;;;16.55;10.88;;;27.50;88.10;;;;;;5123929;28;20035;-52
2022/04/08 03:22:26;;;;;;;15.32;9.85;;;27.50;88.00;;;;;;5124098;28;20032;-47
2022/04/08 03:24:54;;;;;;;17.15;9.35;;;27.50;87.80;;;;;;5123714;28;20039;-54
2022/04/08 03:27:20;;;;;;;15.25;9.00;;;27.50;87.40;;;;;;5124038;28;20087;-55
2022/04/08 03:29:50;;;;;;;16.40;8.27;;;27.40;87.20;;;;;;5124036;28;20046;-55
2022/04/08 03:32:16;;;;;;;10.93;7.47;;;27.40;87.20;;;;;;5123851;28;20019;-53
2022/04/08 03:34:43;;;;;;;13.82;7.93;;;27.40;87.30;;;;;;5123819;28;20357;-51
2022/04/08 03:37:10;;;;;;;14.77;8.20;;;27.40;87.20;;;;;;5124005;28;20036;-49
2022/04/08 03:39:37;;;;;;;14.48;7.53;;;27.40;87.40;;;;;;5123571;28;20140;-53
2022/04/08 03:42:06;;;;;;;15.85;7.28;;;27.40;87.20;;;;;;5124059;28;20289;-61
2022/04/08 03:44:32;;;;;;;17.25;7.13;;;27.40;87.00;;;;;;5123737;28;20055;-52
2022/04/08 03:46:59;;;;;;;11.07;7.25;;;27.40;86.90;;;;;;5123569;28;20020;-52
2022/04/08 03:49:26;;;;;;;11.02;6.38;;;27.40;86.80;;;;;;5127209;28;20027;-54
2022/04/08 03:51:54;;;;;;;11.48;7.50;;;27.40;86.60;;;;;;5127274;28;20052;-50
2022/04/08 03:54:21;;;;;;;12.52;7.35;;;27.30;86.50;;;;;;5127423;28;20020;-53
2022/04/08 03:56:48;;;;;;;12.98;7.07;;;27.30;86.40;;;;;;5127327;28;20032;-51
2022/04/08 03:59:14;;;;;;;15.27;7.55;;;27.30;86.60;;;;;;5127368;28;20231;-53
2022/04/08 04:01:41;;;;;;;12.10;7.53;;;27.30;86.40;;;;;;5127202;28;20016;-51
2022/04/08 04:04:07;;;;;;;13.23;6.95;;;27.30;86.30;;;;;;5127281;28;20064;-50
2022/04/08 04:06:34;;;;;;;12.02;7.05;;;27.30;86.20;;;;;;5127080;28;20042;-56
2022/04/08 04:09:01;;;;;;;12.23;7.05;;;27.30;86.00;;;;;;5127065;28;20023;-55
2022/04/08 04:11:27;;;;;;;12.65;7.68;;;27.30;86.00;;;;;;5126953;28;20404;-51
2022/04/08 04:13:54;;;;;;;13.27;7.05;;;27.30;86.00;;;;;;5127094;28;20035;-50
2022/04/08 04:16:20;;;;;;;9.48;6.43;;;27.30;85.80;;;;;;5126908;28;20334;-55
2022/04/08 04:18:47;;;;;;;13.23;6.78;;;27.30;86.00;;;;;;5126834;28;20032;-52
2022/04/08 04:21:13;;;;;;;15.45;7.20;;;27.30;86.00;;;;;;5126701;28;20073;-56
2022/04/08 04:23:40;;;;;;;12.48;7.30;;;27.30;86.40;;;;;;5126867;28;20024;-54
2022/04/08 04:26:07;;;;;;;15.52;7.55;;;27.30;86.10;;;;;;5126590;28;20323;-51
2022/04/08 04:28:34;;;;;;;11.60;6.75;;;27.30;86.30;;;;;;5127240;28;20200;-56
2022/04/08 04:31:01;;;;;;;15.55;6.63;;;27.30;86.40;;;;;;5126639;28;20054;-54
2022/04/08 04:33:28;;;;;;;10.88;6.63;;;27.30;86.50;;;;;;5126955;28;20030;-54
2022/04/08 04:35:55;;;;;;;12.30;6.80;;;27.20;86.70;;;;;;5126567;28;20061;-49
2022/04/08 04:38:22;;;;;;;15.15;7.15;;;27.20;86.50;;;;;;5126861;28;20024;-51
2022/04/08 04:40:49;;;;;;;11.02;6.82;;;27.30;86.70;;;;;;5126376;28;20129;-58
2022/04/08 04:43:16;;;;;;;13.88;6.57;;;27.20;86.60;;;;;;5126883;28;20043;-54
2022/04/08 04:45:43;;;;;;;12.77;6.32;;;27.30;86.50;;;;;;5126551;28;20030;-57
2022/04/08 04:48:11;;;;;;;13.55;7.00;;;27.30;86.30;;;;;;5126781;28;20027;-58
2022/04/08 04:50:38;;;;;;;9.52;6.55;;;27.20;86.10;;;;;;5126314;28;20047;-53
2022/04/08 04:53:07;;;;;;;12.57;6.45;;;27.20;86.20;;;;;;5126576;28;20315;-52
2022/04/08 04:55:34;;;;;;;11.00;6.43;;;27.20;86.10;;;;;;5126114;28;20050;-52
2022/04/08 04:58:02;;;;;;;16.13;6.90;;;27.20;86.10;;;;;;5126591;28;20042;-55
2022/04/08 05:00:29;;;;;;;18.48;6.55;;;27.20;85.80;;;;;;5126018;28;20057;-53
2022/04/08 05:02:56;;;;;;;12.18;6.45;;;27.20;85.80;;;;;;5126279;28;20046;-52
2022/04/08 05:05:23;;;;;;;17.10;6.50;;;27.20;85.70;;;;;;5126000;28;20025;-52
2022/04/08 05:07:49;;;;;;;13.93;6.82;;;27.20;86.10;;;;;;5126331;28;20315;-50
2022/04/08 05:10:16;;;;;;;11.65;6.40;;;27.20;86.10;;;;;;5125797;28;20246;-54
2022/04/08 05:12:42;;;;;;;11.38;6.55;;;27.20;85.90;;;;;;5126303;28;20035;-51
2022/04/08 05:15:11;;;;;;;16.98;6.90;;;27.20;85.90;;;;;;5125932;28;20208;-48
2022/04/08 05:17:38;;;;;;;14.27;6.43;;;27.20;86.20;;;;;;5125913;28;20038;-56
2022/04/08 05:20:08;;;;;;;12.38;6.20;;;27.20;86.30;;;;;;5125695;28;20027;-59
2022/04/08 05:22:35;;;;;;;13.35;6.78;;;27.20;86.30;;;;;;5125879;28;20035;-58
2022/04/08 05:25:02;;;;;;;13.80;6.45;;;27.20;86.50;;;;;;5125658;28;20307;-53
2022/04/08 05:27:37;;;;;;;16.10;6.22;;;27.20;86.10;;;;;;5125777;28;20062;-57
2022/04/08 05:30:18;;;;;;;13.07;6.80;;;27.10;86.00;;;;;;5125809;28;20069;-54
2022/04/08 05:32:46;;;;;;;16.20;6.50;;;27.20;86.10;;;;;;5125883;28;20242;-51
2022/04/08 05:35:18;;;;;;;16.70;6.75;;;27.20;86.30;;;;;;5125379;28;20027;-54
2022/04/08 05:37:46;;;;;;;12.83;6.20;;;27.20;86.20;;;;;;5125634;28;20143;-59
2022/04/08 05:40:21;;;;;;;11.13;6.05;;;27.20;86.00;;;;;;5125248;28;20027;-51
2022/04/08 05:42:51;;;;;;;15.45;6.40;;;27.10;86.10;;;;;;5125401;28;20080;-55
2022/04/08 05:45:21;;;;;;;13.45;6.40;;;27.10;86.20;;;;;;5125275;28;20031;-55
2022/04/08 05:47:49;;;;;;;9.93;6.35;;;27.20;86.30;;;;;;5125416;28;20300;-54
2022/04/08 05:50:17;;;;;;;11.05;6.70;;;27.10;86.40;;;;;;5124760;28;20057;-53
2022/04/08 05:52:45;;;;;;;12.35;6.68;;;27.10;86.50;;;;;;5125633;28;20376;-52
2022/04/08 05:55:11;;;;;;;13.30;6.72;;;27.10;86.10;;;;;;5125227;28;20099;-50
2022/04/08 05:57:41;;;;;;;12.20;6.22;;;27.10;86.10;;;;;;5125200;28;20039;-49
2022/04/08 06:00:13;;;;;;;13.80;6.60;;;27.10;86.00;;;;;;5125117;28;20363;-53
2022/04/08 06:02:43;;;;;;;16.48;6.35;;;27.10;85.80;;;;;;5125165;28;20036;-50
2022/04/08 06:05:10;;;;;;;14.23;6.78;;;27.10;86.00;;;;;;5124922;28;20035;-55
2022/04/08 06:07:48;;;;;;;13.23;6.35;;;27.00;86.10;;;;;;5125173;28;20277;-55
2022/04/08 06:10:26;;;;;;;11.50;6.72;;;27.10;85.90;;;;;;5124309;28;20046;-57
2022/04/08 06:12:55;;;;;;;13.15;6.57;;;27.10;86.10;;;;;;5125163;28;20292;-59
2022/04/08 06:15:22;;;;;;;14.20;7.00;;;27.10;86.20;;;;;;5124557;28;20027;-54
2022/04/08 06:17:48;;;;;;;14.80;7.40;;;27.00;86.20;;;;;;5123989;28;20048;-54
2022/04/08 06:20:18;;;;;;;16.77;6.45;;;27.00;86.00;;;;;;5124708;28;20023;-53
2022/04/08 06:22:47;;;;;;;12.77;5.75;;;27.00;86.10;;;;;;5124885;28;20032;-54
2022/04/08 06:25:17;;;;;;;18.05;6.35;;;27.00;86.10;;;;;;5124804;28;20031;-56
2022/04/08 06:27:45;;;;;;;12.57;6.20;;;27.00;85.70;;;;;;5124897;28;20027;-56
2022/04/08 06:30:14;;;;;;;13.18;6.47;;;27.00;86.00;;;;;;5124331;28;20031;-53
2022/04/08 06:32:43;;;;;;;19.20;7.07;;;27.00;85.90;;;;;;5124745;28;20108;-54
2022/04/08 06:35:10;;;;;;;15.43;6.75;;;27.00;85.90;;;;;;5124454;28;20098;-51
2022/04/08 06:37:37;;;;;;;16.38;6.43;;;27.00;86.00;;;;;;5124492;28;20027;-54
2022/04/08 06:40:09;;;;;;;13.05;6.47;;;27.00;86.00;;;;;;5124464;28;20035;-56
2022/04/08 06:42:36;;;;;;;10.57;6.20;;;27.00;85.90;;;;;;5124720;28;20059;-52
2022/04/08 06:45:04;;;;;;;12.38;6.60;;;27.00;85.60;;;;;;5124106;28;20019;-50
2022/04/08 06:47:31;;;;;;;15.70;6.95;;;27.00;85.60;;;;;;5124633;28;20098;-56
2022/04/08 06:49:58;;;;;;;10.68;6.30;;;27.00;85.60;;;;;;5124256;28;20020;-57
2022/04/08 06:52:25;;;;;;;9.07;6.10;;;27.00;85.40;;;;;;5124206;28;20047;-57
2022/04/08 06:54:51;;;;;;;12.85;7.15;;;26.90;85.40;;;;;;5124422;28;20061;-54
2022/04/08 06:57:18;;;;;;;11.80;6.57;;;26.90;85.40;;;;;;5124421;28;20028;-54
2022/04/08 06:59:44;;;;;;;13.27;6.57;;;26.90;85.50;;;;;;5124123;28;20022;-54
2022/04/08 07:02:12;;;;;;;14.20;7.22;;;26.90;85.40;;;;;;5124472;28;20043;-56
2022/04/08 07:04:38;;;;;;;12.80;6.53;;;26.90;85.30;;;;;;5124156;28;20031;-53
2022/04/08 07:07:05;;;;;;;11.77;6.75;;;26.90;85.40;;;;;;5124315;28;20360;-56
2022/04/08 07:09:35;;;;;;;11.60;6.32;;;26.90;85.40;;;;;;5124203;28;20064;-55
2022/04/08 07:12:02;;;;;;;12.43;6.50;;;26.90;84.90;;;;;;5124179;28;20030;-53
2022/04/08 07:14:29;;;;;;;11.20;6.38;;;26.90;84.40;;;;;;5124021;28;20030;-55
2022/04/08 07:16:55;;;;;;;12.68;6.90;;;26.90;84.40;;;;;;5124203;28;20133;-54
2022/04/08 07:19:22;;;;;;;13.20;6.85;;;26.90;84.60;;;;;;5124119;28;20363;-53
2022/04/08 07:21:49;;;;;;;9.50;6.43;;;26.90;84.20;;;;;;5123912;28;20049;-57
2022/04/08 07:24:15;;;;;;;14.98;7.22;;;26.90;84.70;;;;;;5127428;28;20035;-53
2022/04/08 07:26:42;;;;;;;14.93;6.95;;;26.90;85.20;;;;;;5127879;28;20031;-51
2022/04/08 07:29:09;;;;;;;9.75;6.20;;;26.90;84.60;;;;;;5128054;28;20075;-52
2022/04/08 07:31:36;;;;;;;11.55;7.68;;;26.90;84.80;;;;;;5127880;28;20062;-53
2022/04/08 07:34:03;;;;;;;14.68;7.80;;;26.90;84.70;;;;;;5127790;28;20024;-48
2022/04/08 07:36:29;;;;;;;12.65;7.13;;;26.90;84.80;;;;;;5127585;28;20069;-51
2022/04/08 07:38:56;;;;;;;13.88;7.82;;;26.90;84.40;;;;;;5127701;28;20034;-53
2022/04/08 07:41:22;;;;;;;15.45;7.75;;;26.90;84.40;;;;;;5127706;28;20019;-49
2022/04/08 07:43:50;;;;;;;15.88;7.72;;;26.90;84.50;;;;;;5127683;28;20376;-50
2022/04/08 07:46:16;;;;;;;10.13;7.85;;;26.90;84.50;;;;;;5127323;28;20051;-54
2022/04/08 07:48:43;;;;;;;12.05;7.82;;;26.90;84.50;;;;;;5127722;28;20028;-50
2022/04/08 07:51:10;;;;;;;11.68;7.70;;;26.80;84.40;;;;;;5127160;28;20046;-50
2022/04/08 07:53:37;;;;;;;11.68;7.18;;;26.80;84.10;;;;;;5128021;28;20031;-51
2022/04/08 07:56:04;;;;;;;11.18;6.93;;;26.80;84.40;;;;;;5127325;28;20034;-50
2022/04/08 07:58:30;;;;;;;14.60;7.70;;;26.80;84.10;;;;;;5127740;28;20028;-54
2022/04/08 08:00:57;;;;;;;13.23;7.45;;;26.80;84.20;;;;;;5127841;28;20050;-58
2022/04/08 08:03:23;;;;;;;10.35;7.35;;;26.80;84.00;;;;;;5127733;28;20040;-54
2022/04/08 08:05:53;;;;;;;11.45;7.30;;;26.80;84.10;;;;;;5127153;28;20034;-53
2022/04/08 08:08:20;;;;;;;13.07;6.90;;;26.80;84.20;;;;;;5127510;28;20083;-55
2022/04/08 08:10:47;;;;;;;16.83;7.55;;;26.80;84.10;;;;;;5127193;28;20032;-53
2022/04/08 08:13:13;;;;;;;11.68;6.90;;;26.80;84.30;;;;;;5127458;28;20199;-53
2022/04/08 08:15:41;;;;;;;9.55;6.65;;;26.80;84.30;;;;;;5127004;28;20043;-50
2022/04/08 08:18:08;;;;;;;10.35;6.13;;;26.80;84.40;;;;;;5127344;28;20031;-58
2022/04/08 08:20:35;;;;;;;11.75;6.07;;;26.80;84.00;;;;;;5126765;28;20046;-54
2022/04/08 08:23:01;;;;;;;8.48;5.80;;;26.80;84.00;;;;;;5127191;28;20115;-56
2022/04/08 08:25:28;;;;;;;11.75;5.97;;;26.80;83.30;;;;;;5126728;28;20062;-58
2022/04/08 08:28:01;;;;;;;9.80;6.30;;;26.80;83.40;;;;;;5127118;28;20016;-57
2022/04/08 08:30:30;;;;;;;10.68;6.00;;;26.80;83.20;;;;;;5126766;28;20025;-61
2022/04/08 08:32:57;;;;;;;10.40;5.90;;;26.80;83.20;;;;;;5126974;28;20098;-53
2022/04/08 08:35:25;;;;;;;10.00;5.93;;;26.80;83.20;;;;;;5126126;28;20027;-49
2022/04/08 08:37:51;;;;;;;11.00;5.75;;;26.80;83.10;;;;;;5126795;28;20028;-50
2022/04/08 08:40:19;;;;;;;9.13;5.63;;;26.80;82.90;;;;;;5126506;28;20339;-51
2022/04/08 08:42:46;;;;;;;9.60;5.75;;;26.80;82.80;;;;;;5126747;28;20296;-48
2022/04/08 08:45:15;;;;;;;10.18;5.70;;;26.80;82.70;;;;;;5126348;28;20338;-54
2022/04/08 08:47:47;;;;;;;11.18;6.10;;;26.80;82.70;;;;;;5126784;28;20032;-57
2022/04/08 08:50:15;;;;;;;14.93;5.75;;;26.80;82.80;;;;;;5126099;28;20188;-51
2022/04/08 08:52:43;;;;;;;11.70;6.07;;;26.80;82.50;;;;;;5126557;28;20034;-51
2022/04/08 08:55:09;;;;;;;12.77;6.13;;;26.80;82.70;;;;;;5126333;28;20121;-51
2022/04/08 08:57:36;;;;;;;12.35;5.72;;;26.80;82.80;;;;;;5126400;28;20326;-53
2022/04/08 09:00:13;;;;;;;11.48;5.80;;;26.80;82.90;;;;;;5126113;28;20032;-52
2022/04/08 09:02:41;;;;;;;11.13;5.72;;;26.80;83.10;;;;;;5126396;28;20062;-50
2022/04/08 09:05:23;;;;;;;11.35;6.00;;;26.80;83.30;;;;;;5126097;28;20038;-56
2022/04/08 09:08:08;;;;;;;12.10;5.75;;;26.80;83.30;;;;;;5126489;28;20031;-53
2022/04/08 09:10:36;;;;;;;12.27;6.07;;;26.80;83.40;;;;;;5125885;28;20038;-54
2022/04/08 09:13:05;;;;;;;13.85;6.05;;;26.80;83.60;;;;;;5126505;28;20047;-55
2022/04/08 09:15:37;;;;;;;11.02;6.30;;;26.80;83.90;;;;;;5125698;28;20030;-57
2022/04/08 09:18:07;;;;;;;11.82;6.40;;;26.80;84.30;;;;;;5126166;28;20028;-56
2022/04/08 09:20:42;;;;;;;10.55;5.97;;;26.80;84.60;;;;;;5125706;28;20094;-52
2022/04/08 09:23:10;;;;;;;12.30;6.72;;;26.80;84.80;;;;;;5126039;28;20034;-54
2022/04/08 09:25:37;;;;;;;16.38;7.07;;;26.80;85.60;;;;;;5125537;28;20047;-52
2022/04/08 09:28:12;;;;;;;13.45;7.15;;;26.80;85.10;;;;;;5126002;28;20024;-52
2022/04/08 09:30:39;;;;;;;13.82;7.95;;;26.80;85.20;;;;;;5125474;28;20019;-50
2022/04/08 09:33:18;;;;;;;22.67;9.85;;;26.80;86.60;;;;;;5125926;28;20031;-56
2022/04/08 09:35:46;;;;;;;27.50;12.52;;;26.80;87.50;;;;;;5125386;28;20023;-58
2022/04/08 09:38:21;;;;;;;33.67;14.23;;;26.80;88.90;;;;;;5125772;28;20185;-59
2022/04/08 09:40:48;;;;;;;25.75;14.00;;;26.70;89.70;;;;;;5125305;28;20031;-55
2022/04/08 09:43:16;;;;;;;29.83;14.57;;;26.70;90.20;;;;;;5125797;28;20055;-50
2022/04/08 09:45:44;;;;;;;30.08;12.98;;;26.60;90.30;;;;;;5124361;28;20364;-52
2022/04/08 09:48:11;;;;;;;23.25;12.77;;;26.60;90.50;;;;;;5125424;28;20100;-57
2022/04/08 09:50:40;;;;;;;27.17;11.00;;;26.60;90.70;;;;;;5125129;28;20243;-55
2022/04/08 09:53:07;;;;;;;21.20;10.73;;;26.60;90.70;;;;;;5125508;28;20068;-60
2022/04/08 09:55:36;;;;;;;21.15;9.70;;;26.60;90.70;;;;;;5124905;28;20034;-56
2022/04/08 09:58:08;;;;;;;17.08;9.18;;;26.60;90.80;;;;;;5125471;28;20055;-56
2022/04/08 10:00:35;;;;;;;;;;;26.60;90.90;;;;;;5125266;28;20083;-59
2022/04/08 10:03:02;;;;;;;16.33;9.60;;;26.50;90.90;;;;;;5125323;28;19916;-53
2022/04/08 10:05:29;;;;;;;18.05;10.15;;;26.50;90.80;;;;;;5124881;28;20319;-57
2022/04/08 10:07:56;;;;;;;19.45;10.18;;;26.50;90.80;;;;;;5125182;28;20095;-49
2022/04/08 10:10:48;;;;;;;15.80;9.50;;;26.50;90.70;;;;;;5124882;28;20103;-59
2022/04/08 10:13:27;;;;;;;21.40;10.68;;;26.50;90.60;;;;;;5125039;28;20361;-54
2022/04/08 10:16:01;;;;;;;15.48;9.82;;;26.50;90.60;;;;;;5124723;28;20248;-53
2022/04/08 10:18:39;;;;;;;13.40;9.63;;;26.50;90.60;;;;;;5125088;28;20308;-53
2022/04/08 10:21:06;;;;;;;14.90;10.40;;;26.40;90.50;;;;;;5106884;28;20031;-52
2022/04/08 10:23:37;;;;;;;18.77;10.52;;;26.50;90.50;;;;;;5125040;28;20059;-52
2022/04/08 10:26:05;;;;;;;15.63;9.67;;;26.50;90.50;;;;;;5124411;28;20072;-53
2022/04/08 10:28:36;;;;;;;14.00;10.10;;;26.40;90.50;;;;;;5124925;28;20277;-48
2022/04/08 10:31:23;;;;;;;14.43;10.00;;;26.40;90.60;;;;;;5124488;28;20050;-49
2022/04/08 10:33:57;;;;;;;13.98;9.65;;;26.40;90.70;;;;;;5124478;28;20123;-56
2022/04/08 10:36:36;;;;;;;15.70;9.82;;;26.40;90.70;;;;;;5124194;28;20023;-54
2022/04/08 10:39:13;;;;;;;14.80;9.02;;;26.40;90.50;;;;;;5124298;28;20035;-55
2022/04/08 10:41:52;;;;;;;12.27;8.77;;;26.40;90.60;;;;;;5124203;28;20152;-54
2022/04/08 10:44:34;;;;;;;15.10;9.80;;;26.40;90.50;;;;;;5124399;28;20083;-56
2022/04/08 10:47:06;;;;;;;15.48;9.82;;;26.40;90.50;;;;;;5124112;28;20077;-56
2022/04/08 10:49:32;;;;;;;16.42;9.75;;;26.40;90.60;;;;;;5124377;28;20027;-55
2022/04/08 10:51:59;;;;;;;16.83;9.73;;;26.40;90.60;;;;;;5124282;28;20124;-57
2022/04/08 10:54:35;;;;;;;14.13;11.18;;;26.40;90.80;;;;;;5124194;28;20035;-53
2022/04/08 10:57:02;;;;;;;14.65;9.45;;;26.40;90.80;;;;;;5125721;28;20028;-59
2022/04/08 10:59:29;;;;;;;14.07;9.77;;;26.40;90.80;;;;;;5128295;28;20023;-60
2022/04/08 11:02:06;;;;;;;16.77;10.60;;;26.40;91.00;;;;;;5128589;28;20069;-59
2022/04/08 11:04:34;;;;;;;13.32;9.60;;;26.40;91.00;;;;;;5128328;28;20081;-47
2022/04/08 11:07:05;;;;;;;16.30;9.30;;;26.40;90.90;;;;;;5109947;28;20028;-57
2022/04/08 11:09:32;;;;;;;11.57;8.38;;;26.40;90.80;;;;;;5128242;28;20035;-58
2022/04/08 11:11:59;;;;;;;13.88;9.00;;;26.40;90.80;;;;;;5128562;28;20241;-54
2022/04/08 11:14:29;;;;;;;14.32;8.60;;;26.40;90.70;;;;;;5128046;28;20015;-53
2022/04/08 11:16:56;;;;;;;17.10;8.77;;;26.40;90.60;;;;;;5128176;28;20320;-51
2022/04/08 11:19:23;;;;;;;14.23;8.45;;;26.40;90.60;;;;;;5127964;28;20047;-51
2022/04/08 11:21:51;;;;;;;15.32;8.30;;;26.40;90.60;;;;;;5127918;28;20069;-49
2022/04/08 11:24:18;;;;;;;14.40;8.57;;;26.40;90.60;;;;;;5128041;28;20328;-50
2022/04/08 11:26:46;;;;;;;13.57;8.23;;;26.40;90.60;;;;;;5128235;28;20030;-51
2022/04/08 11:29:36;;;;;;;12.27;8.27;;;26.40;90.50;;;;;;5127706;28;20061;-55
2022/04/08 11:32:12;;;;;;;10.93;7.72;;;26.50;90.50;;;;;;5127980;28;20023;-52
2022/04/08 11:34:39;;;;;;;14.38;8.32;;;26.40;90.50;;;;;;5127772;28;20079;-53
2022/04/08 11:37:06;;;;;;;14.25;9.02;;;26.40;90.50;;;;;;5127867;28;20036;-48
2022/04/08 11:39:33;;;;;;;16.27;9.00;;;26.40;90.50;;;;;;5127535;28;20016;-51
2022/04/08 11:42:02;;;;;;;17.75;8.65;;;26.40;90.50;;;;;;5127935;28;20204;-53
2022/04/08 11:44:29;;;;;;;14.25;8.48;;;26.40;90.60;;;;;;5127645;28;20053;-51
2022/04/08 11:47:08;;;;;;;15.93;8.25;;;26.40;90.40;;;;;;5127431;28;20023;-52
2022/04/08 11:49:35;;;;;;;13.05;9.07;;;26.40;90.50;;;;;;5127448;28;20034;-55
2022/04/08 11:52:06;;;;;;;14.57;8.32;;;26.40;90.60;;;;;;5127372;28;20055;-55
2022/04/08 11:54:40;;;;;;;11.05;7.68;;;26.40;90.70;;;;;;5127555;28;20027;-52
2022/04/08 11:57:07;;;;;;;13.45;7.90;;;26.40;90.60;;;;;;5127455;28;20028;-50
2022/04/08 11:59:35;;;;;;;14.63;8.38;;;26.40;90.50;;;;;;5127110;28;20048;-52
2022/04/08 12:02:01;;;;;;;12.65;8.13;;;26.50;90.50;;;;;;5127385;28;20090;-54
2022/04/08 12:04:28;;;;;;;15.25;8.68;;;26.50;90.40;;;;;;5127144;28;20063;-52
2022/04/08 12:06:55;;;;;;;11.23;8.18;;;26.50;90.60;;;;;;5127003;28;20040;-51
2022/04/08 12:09:22;;;;;;;12.25;7.97;;;26.40;90.60;;;;;;5126453;28;20039;-49
2022/04/08 12:11:56;;;;;;;13.38;8.10;;;26.50;90.50;;;;;;5127152;28;20034;-53
2022/04/08 12:14:23;;;;;;;11.68;7.88;;;26.50;90.50;;;;;;5126820;28;20023;-49
2022/04/08 12:17:00;;;;;;;11.50;7.68;;;26.50;90.50;;;;;;5127224;28;20032;-52
2022/04/08 12:19:27;;;;;;;10.73;7.28;;;26.50;90.50;;;;;;5126978;28;20201;-53
2022/04/08 12:21:54;;;;;;;10.25;7.22;;;26.50;90.50;;;;;;5126828;28;20316;-54
2022/04/08 12:24:21;;;;;;;11.35;7.43;;;26.50;90.50;;;;;;5126989;28;20034;-51
2022/04/08 12:26:52;;;;;;;13.90;8.00;;;26.50;90.40;;;;;;5126922;28;20337;-51
2022/04/08 12:29:19;;;;;;;10.18;7.70;;;26.50;90.50;;;;;;5126710;28;20028;-54
2022/04/08 12:31:50;;;;;;;10.52;7.60;;;26.60;90.60;;;;;;5126879;28;20296;-58
2022/04/08 12:34:18;;;;;;;8.77;7.90;;;26.60;90.70;;;;;;5126771;28;20125;-53
2022/04/08 12:36:46;;;;;;;11.25;8.20;;;26.60;90.70;;;;;;5126718;28;20035;-49
2022/04/08 12:39:13;;;;;;;12.10;7.78;;;26.60;90.70;;;;;;5126573;28;20087;-48
2022/04/08 12:41:47;;;;;;;12.57;7.50;;;26.60;90.70;;;;;;5126467;28;20027;-53